Palmetto Hall Plantation, SC

12:51 AM EDT on June 27, 2017 (GMT -0400)
Hilton Head | | Change Station
Active Advisory: Coastal Flood Advisory Active Notice: Coastal Flood Advisory

Elev 20 ft 32.22 °N, 80.70 °W | Updated 16 minutes ago

Partly Cloudy
Partly Cloudy
75 °F
Feels Like 75 °F
N
0
Wind Variable Wind from North

Today
High -- | Low -- °F
--% Chance of Precip.
Yesterday
High -- | Low -- °F
Precip. -- in
Pressure 30.05 in
Visibility 10.0 miles
Clouds Few 2400 ft
Few 3100 ft
Dew Point 73 °F
Humidity 94%
Rainfall 0.00 in
Snow Depth Not available.
6:18 AM 8:33 PM
Waxing Crescent, 13% visible
METAR KHXD 270435Z AUTO 00000KT 10SM FEW024 FEW031 24/23 A3005 RMK AO2
Pressure 30.05 in
Visibility 10.0 miles
Clouds Few 2400 ft
Few 3100 ft
Dew Point 73 °F
Humidity 94%
Rainfall 0.00 in
Snow Depth Not available.
6:18 AM 8:33 PM
Waxing Crescent, 13% visible
METAR KHXD 270435Z AUTO 00000KT 10SM FEW024 FEW031 24/23 A3005 RMK AO2

Get Your Daily Forecast Email!

Thanks for signing up!

Be on the lookout for a verification email in your inbox.

You'll start receiving severe weather alerts in your inbox..

×

10-Day Weather Forecast

Almanac

Astronomy

Jun. 27, 2017 Rise Set
Actual Time
Civil Twilight
Nautical Twilight
Astronomical Twilight
Moon
Length of Visible Light
Length of Day
Tomorrow will be .
, % of the Moon is Illuminated

Today's Extremes

State Highs State Lows

Community

WunderPhotos

Category 6

Welcome to Category 6. This is the collective home for Weather Underground's featured writeups by Dr. Jeff Masters (right), Bob Henson (left), Chris Burt, and other regular contributors.

Nearby

Air Quality

  Air Quality AQ Index Pollutant
Not available.

Snow Depth

Station Depth Elevation

Earthquake Activity

City Distance Mag. Time & Date
Minimum magnitude displayed is 2.5.

Coastal Water Temperatures

Place Temperature

Stations

Nearby Weather Stations

Station Location Temp. Windchill Dew Point Humidity Wind Precip. Elev Updated Type
                   

Watches & Warnings

Coastal Flood Advisory
Issued: 6:50 PM EDT Jun. 26, 2017 – National Weather Service

... Coastal flood advisory in effect from 10 PM this evening to
1 am EDT Tuesday...

The National Weather Service in Charleston has issued a coastal
flood advisory... which is in effect from 10 PM this evening to
1 am EDT Tuesday.

* Locations... low-lying coastal areas of southeast South
Carolina... including downtown Charleston.

* Tide levels... high tide is expected to peak between 7.0 and 7.2
feet mean lower low water.

* Timing... high tide will occur around 11 PM EDT at Charleston.
Shallow saltwater flooding will be possible 1 to 2 hours before
and after high tide.

* Coastal flood impacts... inundation of saltwater in and near
low-lying coastal areas could result in some roads becoming
impassable.

Precautionary/preparedness actions...

Be prepared for the possibility of impassable roads. If travel is
necessary... do not attempt to drive through water of unknown
depth.